Michipicoten — CFG8060 — position and weather

sailwx.info

Track history (hours):
 
Tides and Currents Weather Stations Pressure Air Temp Water Temp Dewpoint Dewpoint Depression Visibility Wind Speed Wind Dir Waves Ship Positions

Michipicoten

Last reported at 2014-Sep-01 03:33 UTC. Time now 2014-Sep-02 02:24 UTC.
Position N 45°41' W 083°10'.

Length 212 m.

Type: Ship. MMSI: 316002501.

Date/timePositionNaut miles runAvg speedWind from/ knotsBaromVisibWave heightAir tempDewpointWater temp
2014-Sep-01 03:33N 45°41' W 083°10'  
2014-Aug-29 12:27N 46°31' W 084°23'8 4.2
2014-Aug-29 10:32N 46°27' W 084°33'1612.8
2014-Aug-29 09:19N 46°39' W 084°48'1013.1
2014-Aug-29 08:33N 46°48' W 084°55'1513.0
2014-Aug-29 07:23N 46°50' W 085°18'1413.7
2014-Aug-29 06:21N 46°49' W 085°38'4113.6
2014-Aug-29 03:19N 46°42' W 086°37'93 5.2
2014-Aug-28 09:33N 46°31' W 084°23'0 0.0
2014-Aug-28 08:33N 46°31' W 084°23'0 0.0
2014-Aug-28 07:29N 46°31' W 084°23'0 0.0
2014-Aug-28 06:08N 46°31' W 084°23'0 0.0
2014-Aug-28 05:19N 46°31' W 084°23'21 7.4
2014-Aug-28 02:31N 46°41' W 084°49'18 0.8
2014-Aug-27 03:18N 46°27' W 084°33'8 9.7
2014-Aug-27 02:30N 46°31' W 084°23'31 2.8
2014-Aug-26 15:12N 46°04' W 083°60'710.3
2014-Aug-26 14:32N 45°58' W 083°53'1313.2
2014-Aug-26 13:33N 45°46' W 083°50'1313.2
2014-Aug-26 12:33N 45°32' W 083°48'4 0.2
2014-Aug-25 17:33N 45°30' W 083°51'1313.3
2014-Aug-25 16:33N 45°37' W 084°07'1313.2
2014-Aug-25 15:33N 45°42' W 084°25'1413.8
2014-Aug-25 14:33N 45°49' W 084°42'1413.7
2014-Aug-25 13:33N 45°50' W 085°02'10 9.8
2014-Aug-25 12:33N 45°43' W 085°12'1414.1
2014-Aug-25 11:33N 45°32' W 085°24'1414.2
2014-Aug-25 10:33N 45°20' W 085°36'1414.1
2014-Aug-25 09:33N 45°09' W 085°48'1413.8
2014-Aug-25 08:33N 44°59' W 086°01'1413.7
2014-Aug-25 07:32N 44°50' W 086°16'  
2014-Aug-22 20:28N 45°22' W 086°15'1213.2
2014-Aug-22 19:34N 45°33' W 086°10'1212.3
2014-Aug-22 18:34N 45°43' W 086°00'1313.0
2014-Aug-22 17:33N 45°50' W 085°44'1212.5
2014-Aug-22 16:33N 45°53' W 085°27'1313.4
2014-Aug-22 15:33N 45°51' W 085°08'1313.3
2014-Aug-22 14:33N 45°50' W 084°49'1211.7
2014-Aug-22 13:33N 45°51' W 084°32'1313.5
2014-Aug-22 12:34N 45°53' W 084°13'1313.3
2014-Aug-22 11:33N 45°56' W 083°54'1110.6
2014-Aug-22 10:34N 46°06' W 084°01'16 8.0
2014-Aug-22 08:32N 46°20' W 084°13'  
Track history (hours):
 
Tides and Currents Weather Stations Pressure Air Temp Water Temp Dewpoint Dewpoint Depression Visibility Wind Speed Wind Dir Waves Ship Positions

Michipicoten

Last reported at 2014-Sep-01 03:33 UTC. Time now 2014-Sep-02 02:24 UTC.
Position N 45°41' W 083°10'.

Length 212 m.

Type: Ship. MMSI: 316002501.

Date/timePositionNaut miles runAvg speedWind from/ knotsBaromVisibWave heightAir tempDewpointWater temp
2014-Sep-01 03:33N 45°41' W 083°10'  
2014-Aug-29 12:27N 46°31' W 084°23'8 4.2
2014-Aug-29 10:32N 46°27' W 084°33'1612.8
2014-Aug-29 09:19N 46°39' W 084°48'1013.1
2014-Aug-29 08:33N 46°48' W 084°55'1513.0
2014-Aug-29 07:23N 46°50' W 085°18'1413.7
2014-Aug-29 06:21N 46°49' W 085°38'4113.6
2014-Aug-29 03:19N 46°42' W 086°37'93 5.2
2014-Aug-28 09:33N 46°31' W 084°23'0 0.0
2014-Aug-28 08:33N 46°31' W 084°23'0 0.0
2014-Aug-28 07:29N 46°31' W 084°23'0 0.0
2014-Aug-28 06:08N 46°31' W 084°23'0 0.0
2014-Aug-28 05:19N 46°31' W 084°23'21 7.4
2014-Aug-28 02:31N 46°41' W 084°49'18 0.8
2014-Aug-27 03:18N 46°27' W 084°33'8 9.7
2014-Aug-27 02:30N 46°31' W 084°23'31 2.8
2014-Aug-26 15:12N 46°04' W 083°60'710.3
2014-Aug-26 14:32N 45°58' W 083°53'1313.2
2014-Aug-26 13:33N 45°46' W 083°50'1313.2
2014-Aug-26 12:33N 45°32' W 083°48'4 0.2
2014-Aug-25 17:33N 45°30' W 083°51'1313.3
2014-Aug-25 16:33N 45°37' W 084°07'1313.2
2014-Aug-25 15:33N 45°42' W 084°25'1413.8
2014-Aug-25 14:33N 45°49' W 084°42'1413.7
2014-Aug-25 13:33N 45°50' W 085°02'10 9.8
2014-Aug-25 12:33N 45°43' W 085°12'1414.1
2014-Aug-25 11:33N 45°32' W 085°24'1414.2
2014-Aug-25 10:33N 45°20' W 085°36'1414.1
2014-Aug-25 09:33N 45°09' W 085°48'1413.8
2014-Aug-25 08:33N 44°59' W 086°01'1413.7
2014-Aug-25 07:32N 44°50' W 086°16'  
2014-Aug-22 20:28N 45°22' W 086°15'1213.2
2014-Aug-22 19:34N 45°33' W 086°10'1212.3
2014-Aug-22 18:34N 45°43' W 086°00'1313.0
2014-Aug-22 17:33N 45°50' W 085°44'1212.5
2014-Aug-22 16:33N 45°53' W 085°27'1313.4
2014-Aug-22 15:33N 45°51' W 085°08'1313.3
2014-Aug-22 14:33N 45°50' W 084°49'1211.7
2014-Aug-22 13:33N 45°51' W 084°32'1313.5
2014-Aug-22 12:34N 45°53' W 084°13'1313.3
2014-Aug-22 11:33N 45°56' W 083°54'1110.6
2014-Aug-22 10:34N 46°06' W 084°01'16 8.0
2014-Aug-22 08:32N 46°20' W 084°13'  

Dump ship's entire track history